sensor_id;sensor_type;location;lat;lon;timestamp;pressure;altitude;pressure_sealevel;temperature;humidity
53916;BME280;39827;49.652;18.770;2023-04-22T00:00:09;74603.19;;;-149.71;62.51
53916;BME280;39827;49.652;18.770;2023-04-22T00:02:35;74609.22;;;-149.71;62.26
53916;BME280;39827;49.652;18.770;2023-04-22T00:05:01;74615.22;;;-149.71;62.74
53916;BME280;39827;49.652;18.770;2023-04-22T00:07:27;74593.13;;;-149.71;62.33
53916;BME280;39827;49.652;18.770;2023-04-22T00:09:53;74603.19;;;-149.71;62.23
53916;BME280;39827;49.652;18.770;2023-04-22T00:12:18;74613.22;;;-149.71;62.92
53916;BME280;39827;49.652;18.770;2023-04-22T00:14:43;74597.16;;;-149.71;62.71
53916;BME280;39827;49.652;18.770;2023-04-22T00:17:09;74623.28;;;-149.71;63.46
53916;BME280;39827;49.652;18.770;2023-04-22T00:19:35;74611.22;;;-149.71;63.13
53916;BME280;39827;49.652;18.770;2023-04-22T00:22:01;74629.28;;;-149.71;63.48
53916;BME280;39827;49.652;18.770;2023-04-22T00:24:27;74619.25;;;-149.71;62.58
53916;BME280;39827;49.652;18.770;2023-04-22T00:26:53;74603.19;;;-149.71;62.26
53916;BME280;39827;49.652;18.770;2023-04-22T00:29:18;74593.13;;;-149.71;61.63
53916;BME280;39827;49.652;18.770;2023-04-22T00:31:43;74587.09;;;-149.71;61.85
53916;BME280;39827;49.652;18.770;2023-04-22T00:34:09;74585.09;;;-149.71;62.76
53916;BME280;39827;49.652;18.770;2023-04-22T00:36:34;74573.03;;;-149.71;62.91
53916;BME280;39827;49.652;18.770;2023-04-22T00:39:00;74621.25;;;-149.71;63.73
53916;BME280;39827;49.652;18.770;2023-04-22T00:41:26;74629.28;;;-149.71;64.21
53916;BME280;39827;49.652;18.770;2023-04-22T00:43:52;74623.28;;;-149.71;64.19
53916;BME280;39827;49.652;18.770;2023-04-22T00:46:18;74613.22;;;-149.71;64.10
53916;BME280;39827;49.652;18.770;2023-04-22T00:48:45;74611.22;;;-149.71;63.49
53916;BME280;39827;49.652;18.770;2023-04-22T00:51:10;74601.16;;;-149.71;63.08
53916;BME280;39827;49.652;18.770;2023-04-22T00:53:36;74603.19;;;-149.71;63.25
53916;BME280;39827;49.652;18.770;2023-04-22T00:56:02;74609.22;;;-149.71;63.56
53916;BME280;39827;49.652;18.770;2023-04-22T00:58:28;74615.22;;;-149.71;64.15
53916;BME280;39827;49.652;18.770;2023-04-22T01:00:54;74633.31;;;-149.71;64.74
53916;BME280;39827;49.652;18.770;2023-04-22T01:03:20;74641.34;;;-149.71;65.19
53916;BME280;39827;49.652;18.770;2023-04-22T01:05:49;74631.31;;;-149.71;65.29
53916;BME280;39827;49.652;18.770;2023-04-22T01:08:14;74627.28;;;-149.71;64.53
53916;BME280;39827;49.652;18.770;2023-04-22T01:10:41;74619.25;;;-149.71;64.26
53916;BME280;39827;49.652;18.770;2023-04-22T01:13:06;74625.28;;;-149.71;64.53
53916;BME280;39827;49.652;18.770;2023-04-22T01:15:32;74625.28;;;-149.71;65.01
53916;BME280;39827;49.652;18.770;2023-04-22T01:17:59;74625.28;;;-149.71;64.98
53916;BME280;39827;49.652;18.770;2023-04-22T01:20:26;74639.34;;;-149.71;65.35
53916;BME280;39827;49.652;18.770;2023-04-22T01:22:54;74641.34;;;-149.71;65.37
53916;BME280;39827;49.652;18.770;2023-04-22T01:25:20;74649.38;;;-149.71;65.26
53916;BME280;39827;49.652;18.770;2023-04-22T01:27:46;74629.28;;;-149.71;65.26
53916;BME280;39827;49.652;18.770;2023-04-22T01:30:11;74633.31;;;-149.71;65.08
53916;BME280;39827;49.652;18.770;2023-04-22T01:32:38;74655.41;;;-149.71;65.76
53916;BME280;39827;49.652;18.770;2023-04-22T01:35:04;74683.56;;;-149.71;65.85
53916;BME280;39827;49.652;18.770;2023-04-22T01:37:30;74671.50;;;-149.71;66.00
53916;BME280;39827;49.652;18.770;2023-04-22T01:39:57;74663.47;;;-149.71;65.29
53916;BME280;39827;49.652;18.770;2023-04-22T01:42:23;74677.53;;;-149.71;65.59
53916;BME280;39827;49.652;18.770;2023-04-22T01:44:49;74711.69;;;-149.71;66.80
53916;BME280;39827;49.652;18.770;2023-04-22T01:47:14;74699.63;;;-149.71;66.78
53916;BME280;39827;49.652;18.770;2023-04-22T01:49:40;74701.63;;;-149.71;66.15
53916;BME280;39827;49.652;18.770;2023-04-22T01:52:05;74697.63;;;-149.71;67.00
53916;BME280;39827;49.652;18.770;2023-04-22T01:54:31;74701.63;;;-149.71;68.26
53916;BME280;39827;49.652;18.770;2023-04-22T01:56:56;74699.63;;;-149.71;67.91
53916;BME280;39827;49.652;18.770;2023-04-22T01:59:22;74701.63;;;-149.71;67.86
53916;BME280;39827;49.652;18.770;2023-04-22T02:01:48;74715.69;;;-149.71;67.88
53916;BME280;39827;49.652;18.770;2023-04-22T02:04:13;74717.72;;;-149.71;67.19
53916;BME280;39827;49.652;18.770;2023-04-22T02:06:39;74725.75;;;-149.71;68.84
53916;BME280;39827;49.652;18.770;2023-04-22T02:09:05;74717.72;;;-149.71;68.67
53916;BME280;39827;49.652;18.770;2023-04-22T02:11:30;74721.72;;;-149.71;69.26
53916;BME280;39827;49.652;18.770;2023-04-22T02:13:56;74725.75;;;-149.71;69.68
53916;BME280;39827;49.652;18.770;2023-04-22T02:16:21;74713.69;;;-149.71;68.85
53916;BME280;39827;49.652;18.770;2023-04-22T02:18:47;74713.69;;;-149.71;68.25
53916;BME280;39827;49.652;18.770;2023-04-22T02:21:12;74717.72;;;-149.71;67.83
53916;BME280;39827;49.652;18.770;2023-04-22T02:23:38;74723.75;;;-149.71;68.96
53916;BME280;39827;49.652;18.770;2023-04-22T02:26:04;74709.66;;;-149.71;68.70
53916;BME280;39827;49.652;18.770;2023-04-22T02:28:30;74715.69;;;-149.71;68.87
53916;BME280;39827;49.652;18.770;2023-04-22T02:30:56;74721.72;;;-149.71;69.60
53916;BME280;39827;49.652;18.770;2023-04-22T02:33:22;74709.66;;;-149.71;69.38
53916;BME280;39827;49.652;18.770;2023-04-22T02:35:47;74709.66;;;-149.71;68.18
53916;BME280;39827;49.652;18.770;2023-04-22T02:38:13;74725.75;;;-149.71;68.05
53916;BME280;39827;49.652;18.770;2023-04-22T02:40:38;74731.78;;;-149.71;68.86
53916;BME280;39827;49.652;18.770;2023-04-22T02:43:03;74723.75;;;-149.71;68.94
53916;BME280;39827;49.652;18.770;2023-04-22T02:45:29;74721.72;;;-149.71;68.70
53916;BME280;39827;49.652;18.770;2023-04-22T02:47:54;74717.72;;;-149.71;67.80
53916;BME280;39827;49.652;18.770;2023-04-22T02:50:20;74721.72;;;-149.71;68.66
53916;BME280;39827;49.652;18.770;2023-04-22T02:52:45;74733.78;;;-149.71;69.13
53916;BME280;39827;49.652;18.770;2023-04-22T02:55:11;74733.78;;;-149.71;69.65
53916;BME280;39827;49.652;18.770;2023-04-22T02:57:36;74761.91;;;-149.71;70.53
53916;BME280;39827;49.652;18.770;2023-04-22T03:00:02;74751.88;;;-149.71;70.62
53916;BME280;39827;49.652;18.770;2023-04-22T03:02:28;74743.84;;;-149.71;70.27
53916;BME280;39827;49.652;18.770;2023-04-22T03:04:53;74735.78;;;-149.71;69.81
53916;BME280;39827;49.652;18.770;2023-04-22T03:07:19;74723.75;;;-149.71;69.18
53916;BME280;39827;49.652;18.770;2023-04-22T03:09:44;74729.75;;;-149.71;68.89
53916;BME280;39827;49.652;18.770;2023-04-22T03:12:09;74717.72;;;-149.71;68.43
53916;BME280;39827;49.652;18.770;2023-04-22T03:14:35;74711.69;;;-149.71;67.05
53916;BME280;39827;49.652;18.770;2023-04-22T03:17:00;74709.66;;;-149.71;66.03
53916;BME280;39827;49.652;18.770;2023-04-22T03:19:26;74701.63;;;-149.71;66.39
53916;BME280;39827;49.652;18.770;2023-04-22T03:21:51;74721.72;;;-149.71;68.22
53916;BME280;39827;49.652;18.770;2023-04-22T03:24:16;74743.84;;;-149.71;69.39
53916;BME280;39827;49.652;18.770;2023-04-22T03:26:43;74745.84;;;-149.71;69.69
53916;BME280;39827;49.652;18.770;2023-04-22T03:29:08;74711.69;;;-149.71;68.54
53916;BME280;39827;49.652;18.770;2023-04-22T03:31:33;74699.63;;;-149.71;67.52
53916;BME280;39827;49.652;18.770;2023-04-22T03:33:59;74675.50;;;-149.71;66.79
53916;BME280;39827;49.652;18.770;2023-04-22T03:36:24;74691.59;;;-149.71;67.05
53916;BME280;39827;49.652;18.770;2023-04-22T03:38:51;74699.63;;;-149.71;67.23
53916;BME280;39827;49.652;18.770;2023-04-22T03:41:16;74727.75;;;-149.71;68.45
53916;BME280;39827;49.652;18.770;2023-04-22T03:43:42;74733.78;;;-149.71;68.43
53916;BME280;39827;49.652;18.770;2023-04-22T03:46:07;74709.66;;;-149.71;67.33
53916;BME280;39827;49.652;18.770;2023-04-22T03:48:33;74713.69;;;-149.71;67.25
53916;BME280;39827;49.652;18.770;2023-04-22T03:51:00;74715.69;;;-149.71;67.27
53916;BME280;39827;49.652;18.770;2023-04-22T03:53:26;74725.75;;;-149.71;68.07
53916;BME280;39827;49.652;18.770;2023-04-22T03:55:51;74721.72;;;-149.71;67.76
53916;BME280;39827;49.652;18.770;2023-04-22T03:58:17;74733.78;;;-149.71;67.48
53916;BME280;39827;49.652;18.770;2023-04-22T04:00:42;74735.78;;;-149.71;67.82
53916;BME280;39827;49.652;18.770;2023-04-22T04:03:08;74737.81;;;-149.71;67.77
53916;BME280;39827;49.652;18.770;2023-04-22T04:05:33;74745.84;;;-149.71;67.86
53916;BME280;39827;49.652;18.770;2023-04-22T04:07:59;74733.78;;;-149.71;68.18
53916;BME280;39827;49.652;18.770;2023-04-22T04:10:25;74739.81;;;-149.71;68.22
53916;BME280;39827;49.652;18.770;2023-04-22T04:12:50;74739.81;;;-149.71;67.73
53916;BME280;39827;49.652;18.770;2023-04-22T04:15:16;74729.75;;;-149.71;67.90
53916;BME280;39827;49.652;18.770;2023-04-22T04:17:43;74717.72;;;-149.71;67.10
53916;BME280;39827;49.652;18.770;2023-04-22T04:20:09;74713.69;;;-149.71;67.25
53916;BME280;39827;49.652;18.770;2023-04-22T04:22:34;74709.66;;;-149.71;66.51
53916;BME280;39827;49.652;18.770;2023-04-22T04:25:00;74719.72;;;-149.71;66.96
53916;BME280;39827;49.652;18.770;2023-04-22T04:27:26;74705.66;;;-149.71;66.66
53916;BME280;39827;49.652;18.770;2023-04-22T04:29:52;74699.63;;;-149.71;66.18
53916;BME280;39827;49.652;18.770;2023-04-22T04:32:17;74687.56;;;-149.71;66.31
53916;BME280;39827;49.652;18.770;2023-04-22T04:34:43;74693.59;;;-149.71;67.27
53916;BME280;39827;49.652;18.770;2023-04-22T04:37:08;74679.53;;;-149.71;66.70
53916;BME280;39827;49.652;18.770;2023-04-22T04:39:33;74681.53;;;-149.71;67.32
53916;BME280;39827;49.652;18.770;2023-04-22T04:41:59;74677.53;;;-149.71;67.19
53916;BME280;39827;49.652;18.770;2023-04-22T04:44:25;74675.50;;;-149.71;67.32
53916;BME280;39827;49.652;18.770;2023-04-22T04:46:51;74677.53;;;-149.71;67.39
53916;BME280;39827;49.652;18.770;2023-04-22T04:49:16;74659.44;;;-149.71;66.93
53916;BME280;39827;49.652;18.770;2023-04-22T04:51:42;74661.44;;;-149.71;67.14
53916;BME280;39827;49.652;18.770;2023-04-22T04:54:07;74643.38;;;-149.71;66.83
53916;BME280;39827;49.652;18.770;2023-04-22T04:56:32;74637.34;;;-149.71;67.13
53916;BME280;39827;49.652;18.770;2023-04-22T04:58:58;74653.41;;;-149.71;67.21
53916;BME280;39827;49.652;18.770;2023-04-22T05:01:23;74637.34;;;-149.71;66.93
53916;BME280;39827;49.652;18.770;2023-04-22T05:03:49;74621.25;;;-149.71;66.78
53916;BME280;39827;49.652;18.770;2023-04-22T05:06:14;74613.22;;;-149.71;66.87
53916;BME280;39827;49.652;18.770;2023-04-22T05:08:40;74589.13;;;-149.71;66.32
53916;BME280;39827;49.652;18.770;2023-04-22T05:11:05;74575.03;;;-149.71;66.02
53916;BME280;39827;49.652;18.770;2023-04-22T05:13:30;74542.91;;;-149.71;65.10
53916;BME280;39827;49.652;18.770;2023-04-22T05:15:56;74534.88;;;-149.71;64.40
53916;BME280;39827;49.652;18.770;2023-04-22T05:18:22;74482.63;;;-149.71;63.35
53916;BME280;39827;49.652;18.770;2023-04-22T05:20:47;74464.53;;;-149.71;62.46
53916;BME280;39827;49.652;18.770;2023-04-22T05:23:13;74444.44;;;-149.71;62.19
53916;BME280;39827;49.652;18.770;2023-04-22T05:25:38;74432.38;;;-149.71;60.52
53916;BME280;39827;49.652;18.770;2023-04-22T05:28:03;74400.25;;;-149.71;60.08
53916;BME280;39827;49.652;18.770;2023-04-22T05:30:29;74364.06;;;-149.71;59.80
53916;BME280;39827;49.652;18.770;2023-04-22T05:32:54;74287.72;;;-149.71;58.52
53916;BME280;39827;49.652;18.770;2023-04-22T05:35:20;74213.38;;;-149.71;55.00
53916;BME280;39827;49.652;18.770;2023-04-22T05:37:45;74129.00;;;-149.71;51.40
53916;BME280;39827;49.652;18.770;2023-04-22T05:40:11;74022.53;;;-149.71;49.88
53916;BME280;39827;49.652;18.770;2023-04-22T05:42:36;73964.28;;;-149.71;50.71
53916;BME280;39827;49.652;18.770;2023-04-22T05:45:02;73912.03;;;-149.71;46.41
53916;BME280;39827;49.652;18.770;2023-04-22T05:47:28;73869.84;;;-149.71;42.51
53916;BME280;39827;49.652;18.770;2023-04-22T05:49:54;73775.44;;;-149.71;41.87
53916;BME280;39827;49.652;18.770;2023-04-22T05:52:20;73723.19;;;-149.71;41.33
53916;BME280;39827;49.652;18.770;2023-04-22T05:54:46;73666.94;;;-149.71;41.61
53916;BME280;39827;49.652;18.770;2023-04-22T05:57:11;73654.91;;;-149.71;41.66
53916;BME280;39827;49.652;18.770;2023-04-22T05:59:37;73610.69;;;-149.71;38.86
53916;BME280;39827;49.652;18.770;2023-04-22T06:02:02;73526.34;;;-149.71;37.98
53916;BME280;39827;49.652;18.770;2023-04-22T06:04:27;73502.22;;;-149.71;36.05
53916;BME280;39827;49.652;18.770;2023-04-22T06:06:53;73466.06;;;-149.71;35.44
53916;BME280;39827;49.652;18.770;2023-04-22T06:09:19;73460.03;;;-149.71;36.63
53916;BME280;39827;49.652;18.770;2023-04-22T06:11:45;73413.84;;;-149.71;38.34
53916;BME280;39827;49.652;18.770;2023-04-22T06:14:10;73351.56;;;-149.71;39.02
53916;BME280;39827;49.652;18.770;2023-04-22T06:16:37;73307.38;;;-149.71;38.47
53916;BME280;39827;49.652;18.770;2023-04-22T06:19:02;73287.28;;;-149.71;36.48
53916;BME280;39827;49.652;18.770;2023-04-22T06:21:28;73261.19;;;-149.71;36.38
53916;BME280;39827;49.652;18.770;2023-04-22T06:23:53;73251.13;;;-149.71;36.41
53916;BME280;39827;49.652;18.770;2023-04-22T06:26:19;73277.25;;;-149.71;36.51
53916;BME280;39827;49.652;18.770;2023-04-22T06:28:44;73200.94;;;-149.71;36.13
53916;BME280;39827;49.652;18.770;2023-04-22T06:31:10;73174.81;;;-149.71;36.52
53916;BME280;39827;49.652;18.770;2023-04-22T06:33:35;73140.66;;;-149.71;36.44
53916;BME280;39827;49.652;18.770;2023-04-22T06:36:01;73118.56;;;-149.71;35.37
53916;BME280;39827;49.652;18.770;2023-04-22T06:38:26;73068.34;;;-149.71;34.26
53916;BME280;39827;49.652;18.770;2023-04-22T06:40:51;73132.63;;;-149.71;35.83
53916;BME280;39827;49.652;18.770;2023-04-22T06:43:17;73078.41;;;-149.71;35.96
53916;BME280;39827;49.652;18.770;2023-04-22T06:45:42;73062.34;;;-149.71;35.35
53916;BME280;39827;49.652;18.770;2023-04-22T06:48:08;73062.34;;;-149.71;35.25
53916;BME280;39827;49.652;18.770;2023-04-22T06:50:33;73058.31;;;-149.71;34.71
53916;BME280;39827;49.652;18.770;2023-04-22T06:52:58;73066.34;;;-149.71;34.09
53916;BME280;39827;49.652;18.770;2023-04-22T06:55:24;73020.16;;;-149.71;34.66
53916;BME280;39827;49.652;18.770;2023-04-22T06:57:49;73038.22;;;-149.71;34.95
53916;BME280;39827;49.652;18.770;2023-04-22T07:00:15;73004.09;;;-149.71;35.23
53916;BME280;39827;49.652;18.770;2023-04-22T07:02:41;72998.06;;;-149.71;34.58
53916;BME280;39827;49.652;18.770;2023-04-22T07:05:06;72973.97;;;-149.71;33.75
53916;BME280;39827;49.652;18.770;2023-04-22T07:07:32;72903.66;;;-149.71;33.40
53916;BME280;39827;49.652;18.770;2023-04-22T07:09:57;72855.47;;;-149.71;32.54
53916;BME280;39827;49.652;18.770;2023-04-22T07:12:23;72855.47;;;-149.71;33.66
53916;BME280;39827;49.652;18.770;2023-04-22T07:14:50;72799.22;;;-149.71;32.80
53916;BME280;39827;49.652;18.770;2023-04-22T07:17:15;72785.16;;;-149.71;31.79
53916;BME280;39827;49.652;18.770;2023-04-22T07:19:43;72777.13;;;-149.71;31.74
53916;BME280;39827;49.652;18.770;2023-04-22T07:22:09;72751.03;;;-149.71;30.86
53916;BME280;39827;49.652;18.770;2023-04-22T07:24:34;72696.78;;;-149.71;31.84
53916;BME280;39827;49.652;18.770;2023-04-22T07:27:00;72656.63;;;-149.71;32.23
53916;BME280;39827;49.652;18.770;2023-04-22T07:29:26;72654.63;;;-149.71;31.65
53916;BME280;39827;49.652;18.770;2023-04-22T07:31:52;72614.47;;;-149.71;31.89
53916;BME280;39827;49.652;18.770;2023-04-22T07:34:17;72604.41;;;-149.71;30.16
53916;BME280;39827;49.652;18.770;2023-04-22T07:36:43;72612.44;;;-149.71;31.00
53916;BME280;39827;49.652;18.770;2023-04-22T07:39:08;72584.34;;;-149.71;30.65
53916;BME280;39827;49.652;18.770;2023-04-22T07:41:34;72554.22;;;-149.71;29.96
53916;BME280;39827;49.652;18.770;2023-04-22T07:44:00;72542.16;;;-149.71;29.47
53916;BME280;39827;49.652;18.770;2023-04-22T07:46:27;72536.13;;;-149.71;29.68
53916;BME280;39827;49.652;18.770;2023-04-22T07:48:52;72491.94;;;-149.71;29.38
53916;BME280;39827;49.652;18.770;2023-04-22T07:51:18;72483.91;;;-149.71;29.16
53916;BME280;39827;49.652;18.770;2023-04-22T07:53:43;72465.84;;;-149.71;28.07
53916;BME280;39827;49.652;18.770;2023-04-22T07:56:09;72467.84;;;-149.71;28.66
53916;BME280;39827;49.652;18.770;2023-04-22T07:58:34;72419.66;;;-149.71;28.55
53916;BME280;39827;49.652;18.770;2023-04-22T08:00:59;72417.66;;;-149.71;28.19
53916;BME280;39827;49.652;18.770;2023-04-22T08:03:25;72415.63;;;-149.71;28.93
53916;BME280;39827;49.652;18.770;2023-04-22T08:05:51;72403.59;;;-149.71;27.29
53916;BME280;39827;49.652;18.770;2023-04-22T08:08:16;72383.50;;;-149.71;26.29
53916;BME280;39827;49.652;18.770;2023-04-22T08:10:41;72357.41;;;-149.71;26.18
53916;BME280;39827;49.652;18.770;2023-04-22T08:13:07;72361.41;;;-149.71;26.58
53916;BME280;39827;49.652;18.770;2023-04-22T08:15:32;72389.53;;;-149.71;26.65
53916;BME280;39827;49.652;18.770;2023-04-22T08:17:58;72345.34;;;-149.71;27.26
53916;BME280;39827;49.652;18.770;2023-04-22T08:20:23;72349.38;;;-149.71;26.91
53916;BME280;39827;49.652;18.770;2023-04-22T08:22:50;72349.38;;;-149.71;26.77
53916;BME280;39827;49.652;18.770;2023-04-22T08:25:16;72333.31;;;-149.71;25.78
53916;BME280;39827;49.652;18.770;2023-04-22T08:27:42;72327.28;;;-149.71;26.62
53916;BME280;39827;49.652;18.770;2023-04-22T08:30:08;72317.25;;;-149.71;25.57
53916;BME280;39827;49.652;18.770;2023-04-22T08:32:33;72347.34;;;-149.71;25.32
53916;BME280;39827;49.652;18.770;2023-04-22T08:34:59;72301.16;;;-149.71;25.40
53916;BME280;39827;49.652;18.770;2023-04-22T08:37:25;72305.19;;;-149.71;24.81
53916;BME280;39827;49.652;18.770;2023-04-22T08:39:52;72301.16;;;-149.71;25.64
53916;BME280;39827;49.652;18.770;2023-04-22T08:42:19;72267.03;;;-149.71;26.56
53916;BME280;39827;49.652;18.770;2023-04-22T08:44:45;72269.03;;;-149.71;25.69
53916;BME280;39827;49.652;18.770;2023-04-22T08:47:12;72250.97;;;-149.71;25.80
53916;BME280;39827;49.652;18.770;2023-04-22T08:49:38;72261.00;;;-149.71;25.35
53916;BME280;39827;49.652;18.770;2023-04-22T08:52:04;72267.03;;;-149.71;25.11
53916;BME280;39827;49.652;18.770;2023-04-22T08:54:29;72202.78;;;-149.71;24.51
53916;BME280;39827;49.652;18.770;2023-04-22T08:56:55;72216.84;;;-149.71;25.33
53916;BME280;39827;49.652;18.770;2023-04-22T08:59:21;72200.75;;;-149.71;25.41
53916;BME280;39827;49.652;18.770;2023-04-22T09:01:51;72174.66;;;-149.71;24.79
53916;BME280;39827;49.652;18.770;2023-04-22T09:04:18;72248.97;;;-149.71;24.77
53916;BME280;39827;49.652;18.770;2023-04-22T09:06:43;72254.97;;;-149.71;24.46
53916;BME280;39827;49.652;18.770;2023-04-22T09:09:09;72200.75;;;-149.71;25.18
53916;BME280;39827;49.652;18.770;2023-04-22T09:11:34;72184.69;;;-149.71;24.09
53916;BME280;39827;49.652;18.770;2023-04-22T09:14:02;72202.78;;;-149.71;22.90
53916;BME280;39827;49.652;18.770;2023-04-22T09:16:33;72180.69;;;-149.71;23.53
53916;BME280;39827;49.652;18.770;2023-04-22T09:19:05;72198.75;;;-149.71;23.86
53916;BME280;39827;49.652;18.770;2023-04-22T09:21:32;72154.56;;;-149.71;23.14
53916;BME280;39827;49.652;18.770;2023-04-22T09:23:59;72134.50;;;-149.71;24.37
53916;BME280;39827;49.652;18.770;2023-04-22T09:26:26;72150.56;;;-149.71;23.74
53916;BME280;39827;49.652;18.770;2023-04-22T09:28:56;72130.47;;;-149.71;23.40
53916;BME280;39827;49.652;18.770;2023-04-22T09:31:23;72214.81;;;-149.71;23.67
53916;BME280;39827;49.652;18.770;2023-04-22T09:33:52;72182.69;;;-149.71;23.49
53916;BME280;39827;49.652;18.770;2023-04-22T09:36:22;72168.63;;;-149.71;24.22
53916;BME280;39827;49.652;18.770;2023-04-22T09:39:01;72216.84;;;-149.71;24.59
53916;BME280;39827;49.652;18.770;2023-04-22T09:41:38;72226.88;;;-149.71;24.73
53916;BME280;39827;49.652;18.770;2023-04-22T09:44:09;72150.56;;;-149.71;25.59
53916;BME280;39827;49.652;18.770;2023-04-22T09:46:35;72138.50;;;-149.71;24.34
53916;BME280;39827;49.652;18.770;2023-04-22T09:49:01;72363.44;;;-149.71;24.73
53916;BME280;39827;49.652;18.770;2023-04-22T09:51:27;72224.88;;;-149.71;25.46
53916;BME280;39827;49.652;18.770;2023-04-22T09:54:00;72144.53;;;-149.71;25.09
53916;BME280;39827;49.652;18.770;2023-04-22T09:56:46;72098.34;;;-149.71;25.09
53916;BME280;39827;49.652;18.770;2023-04-22T09:59:23;72026.06;;;-149.71;24.88
53916;BME280;39827;49.652;18.770;2023-04-22T10:01:52;72078.28;;;-149.71;24.13
53916;BME280;39827;49.652;18.770;2023-04-22T10:04:19;72086.31;;;-149.71;23.07
53916;BME280;39827;49.652;18.770;2023-04-22T10:06:50;72214.81;;;-149.71;23.18
53916;BME280;39827;49.652;18.770;2023-04-22T10:09:23;72114.41;;;-149.71;23.42
53916;BME280;39827;49.652;18.770;2023-04-22T10:11:51;72124.47;;;-149.71;23.90
53916;BME280;39827;49.652;18.770;2023-04-22T10:14:20;72122.44;;;-149.71;24.86
53916;BME280;39827;49.652;18.770;2023-04-22T10:16:46;71993.94;;;-149.71;23.96
53916;BME280;39827;49.652;18.770;2023-04-22T10:19:23;71957.78;;;-149.71;24.03
53916;BME280;39827;49.652;18.770;2023-04-22T10:21:57;72048.16;;;-149.71;22.71
53916;BME280;39827;49.652;18.770;2023-04-22T10:24:27;71995.94;;;-149.71;24.29
53916;BME280;39827;49.652;18.770;2023-04-22T10:26:55;72001.97;;;-149.71;24.94
53916;BME280;39827;49.652;18.770;2023-04-22T10:29:22;71995.94;;;-149.71;23.86
53916;BME280;39827;49.652;18.770;2023-04-22T10:32:03;71925.66;;;-149.71;23.43
53916;BME280;39827;49.652;18.770;2023-04-22T10:34:30;71949.75;;;-149.71;24.39
53916;BME280;39827;49.652;18.770;2023-04-22T10:37:00;71875.47;;;-149.71;24.81
53916;BME280;39827;49.652;18.770;2023-04-22T10:39:29;71831.28;;;-149.71;23.94
53916;BME280;39827;49.652;18.770;2023-04-22T10:42:11;71787.13;;;-149.71;23.38
53916;BME280;39827;49.652;18.770;2023-04-22T10:44:52;71809.19;;;-149.71;24.70
53916;BME280;39827;49.652;18.770;2023-04-22T10:47:28;71783.09;;;-149.71;23.84
53916;BME280;39827;49.652;18.770;2023-04-22T10:55:49;71821.25;;;-149.71;22.97
53916;BME280;39827;49.652;18.770;2023-04-22T10:58:20;71763.03;;;-149.71;22.91
53916;BME280;39827;49.652;18.770;2023-04-22T11:00:46;71750.97;;;-149.71;21.82
53916;BME280;39827;49.652;18.770;2023-04-22T11:03:17;71785.09;;;-149.71;23.34
53916;BME280;39827;49.652;18.770;2023-04-22T11:05:44;71791.13;;;-149.71;23.42
53916;BME280;39827;49.652;18.770;2023-04-22T11:08:17;71773.06;;;-149.71;23.07
53916;BME280;39827;49.652;18.770;2023-04-22T11:10:47;71791.13;;;-149.71;21.24
53916;BME280;39827;49.652;18.770;2023-04-22T11:13:17;71829.28;;;-149.71;22.91
53916;BME280;39827;49.652;18.770;2023-04-22T11:15:48;71821.25;;;-149.71;22.85
53916;BME280;39827;49.652;18.770;2023-04-22T11:18:20;71787.13;;;-149.71;24.31
53916;BME280;39827;49.652;18.770;2023-04-22T11:20:47;71746.97;;;-149.71;23.01
53916;BME280;39827;49.652;18.770;2023-04-22T11:23:25;71710.81;;;-149.71;23.25
53916;BME280;39827;49.652;18.770;2023-04-22T11:25:55;71761.00;;;-149.71;24.24
53916;BME280;39827;49.652;18.770;2023-04-22T11:28:21;71759.00;;;-149.71;24.09
53916;BME280;39827;49.652;18.770;2023-04-22T11:30:47;71732.91;;;-149.71;23.14
53916;BME280;39827;49.652;18.770;2023-04-22T11:33:14;71797.16;;;-149.71;23.45
53916;BME280;39827;49.652;18.770;2023-04-22T11:35:40;71752.97;;;-149.71;25.15
53916;BME280;39827;49.652;18.770;2023-04-22T11:38:07;71791.13;;;-149.71;24.13
53916;BME280;39827;49.652;18.770;2023-04-22T11:40:38;71767.03;;;-149.71;23.52
53916;BME280;39827;49.652;18.770;2023-04-22T11:43:06;71765.03;;;-149.71;23.30
53916;BME280;39827;49.652;18.770;2023-04-22T11:45:33;71861.41;;;-149.71;23.16
53916;BME280;39827;49.652;18.770;2023-04-22T11:48:00;71833.31;;;-149.71;24.38
53916;BME280;39827;49.652;18.770;2023-04-22T11:50:28;71841.34;;;-149.71;23.64
53916;BME280;39827;49.652;18.770;2023-04-22T11:52:55;71837.31;;;-149.71;23.56
53916;BME280;39827;49.652;18.770;2023-04-22T11:58:05;71863.41;;;-149.71;24.31
53916;BME280;39827;49.652;18.770;2023-04-22T12:00:47;71839.31;;;-149.71;24.24
53916;BME280;39827;49.652;18.770;2023-04-22T12:03:17;71827.28;;;-149.71;24.51
53916;BME280;39827;49.652;18.770;2023-04-22T12:08:09;71877.47;;;-149.71;22.53
53916;BME280;39827;49.652;18.770;2023-04-22T12:10:44;72034.09;;;-149.71;23.46
53916;BME280;39827;49.652;18.770;2023-04-22T12:13:23;71999.97;;;-149.71;23.61
53916;BME280;39827;49.652;18.770;2023-04-22T12:15:55;71971.84;;;-149.71;24.71
53916;BME280;39827;49.652;18.770;2023-04-22T12:18:30;72008.00;;;-149.71;23.42
53916;BME280;39827;49.652;18.770;2023-04-22T12:21:13;72016.03;;;-149.71;24.75
53916;BME280;39827;49.652;18.770;2023-04-22T12:23:50;72005.97;;;-149.71;24.45
53916;BME280;39827;49.652;18.770;2023-04-22T12:26:17;71975.88;;;-149.71;24.42
53916;BME280;39827;49.652;18.770;2023-04-22T12:28:44;72005.97;;;-149.71;25.19
53916;BME280;39827;49.652;18.770;2023-04-22T12:31:10;72030.06;;;-149.71;25.13
53916;BME280;39827;49.652;18.770;2023-04-22T12:33:36;72048.16;;;-149.71;25.15
53916;BME280;39827;49.652;18.770;2023-04-22T12:36:03;72038.13;;;-149.71;25.36
53916;BME280;39827;49.652;18.770;2023-04-22T12:38:28;72052.16;;;-149.71;26.39